Ergani, Turkey
Current Conditions -  °F | °C
As of 8:50 PM on Monday 26 Jan 2015 (Local Time) from LTCA Reporting Station
Clear Clear  
Wind Chill: 26°   Ceiling: Unl
Heat Index: 32°   Visibility: 5mi
Dew Point: 28°   Wind: 7mph
Humidity: 87%   Direction: 240°WSW
Pressure: 30.12"   Gusts: NA
Location:  38.27°N, 39.76°E
Report Text: LTCA 261750Z 24006KT 8000 NSC M00/M02 Q1020 NOSIG
Loading
Personal Weather Stations






























Interactive Weather Map New forecast layout! Learn more

10-Day Weather Forecast

Advertisements
Track Severe Weather on mobile